Time;durP1;ratioP1;P1;durP2;ratioP2;P2;SDS_P1;SDS_P2;PMS_P1;PMS_P2;Temp;Humidity;BMP_temperature;BMP_pressure;BME280_temperature;BME280_humidity;BME280_pressure;Samples;Min_cycle;Max_cycle;Signal;HPM_P1;HPM_P2
2023/08/28 00:02:57;;;;;;;5.95;4.25;;;;;;;;;;10110144;29;20092;-88
2023/08/28 00:07:58;;;;;;;3.67;2.63;;;;;;;;;;10109197;29;20101;-87
2023/08/28 00:12:59;;;;;;;1.65;1.17;;;;;;;;;;10108951;29;20667;-87
2023/08/28 00:18:00;;;;;;;0.95;0.82;;;;;;;;;;10126268;29;20033;-86
2023/08/28 00:23:01;;;;;;;1.42;1.10;;;;;;;;;;10125924;29;20021;-86
2023/08/28 00:28:02;;;;;;;2.10;0.80;;;;;;;;;;10096688;29;20667;-85
2023/08/28 00:33:03;;;;;;;0.82;0.70;;;;;;;;;;10125644;29;20037;-85
2023/08/28 00:38:04;;;;;;;1.35;0.68;;;;;;;;;;10124888;29;20044;-87
2023/08/28 00:43:05;;;;;;;0.80;0.70;;;;;;;;;;10125313;29;20417;-88
2023/08/28 00:48:07;;;;;;;0.95;0.88;;;;;;;;;;10106637;29;20397;-86
2023/08/28 00:53:11;;;;;;;1.42;0.95;;;;;;;;;;10107030;29;20044;-87
2023/08/28 00:58:13;;;;;;;2.03;1.38;;;;;;;;;;10123782;29;20047;-88
2023/08/28 01:03:14;;;;;;;1.88;1.67;;;;;;;;;;10108052;29;20143;-86
2023/08/28 01:08:34;;;;;;;2.13;1.77;;;;;;;;;;10123256;29;21390;-88
2023/08/28 01:13:37;;;;;;;3.53;1.90;;;;;;;;;;10114314;29;20055;-86
2023/08/28 01:18:39;;;;;;;3.05;2.13;;;;;;;;;;10124602;29;20036;-86
2023/08/28 01:23:47;;;;;;;6.45;3.03;;;;;;;;;;10107338;29;20064;-85
2023/08/28 01:28:48;;;;;;;5.28;2.92;;;;;;;;;;10121849;29;20083;-85
2023/08/28 01:33:51;;;;;;;4.15;2.30;;;;;;;;;;10104884;29;20048;-85
2023/08/28 01:38:56;;;;;;;3.03;1.98;;;;;;;;;;10105551;29;20040;-85
2023/08/28 01:44:00;;;;;;;1.95;1.73;;;;;;;;;;10104362;29;20039;-85
2023/08/28 01:49:01;;;;;;;3.53;1.55;;;;;;;;;;10106667;29;20036;-85
2023/08/28 01:54:02;;;;;;;2.65;1.55;;;;;;;;;;10122444;29;20036;-84
2023/08/28 01:59:03;;;;;;;2.25;1.42;;;;;;;;;;10123855;29;20037;-85
2023/08/28 02:04:04;;;;;;;2.00;1.45;;;;;;;;;;10104869;29;20633;-87
2023/08/28 02:09:05;;;;;;;2.50;1.60;;;;;;;;;;10106450;29;20037;-88
2023/08/28 02:14:06;;;;;;;2.15;1.63;;;;;;;;;;10124515;29;20032;-85
2023/08/28 02:19:07;;;;;;;2.63;1.55;;;;;;;;;;10113255;29;20087;-88
2023/08/28 02:24:08;;;;;;;3.05;1.70;;;;;;;;;;10131452;29;20025;-86
2023/08/28 02:29:09;;;;;;;4.70;2.00;;;;;;;;;;10129896;29;20064;-86
2023/08/28 02:34:10;;;;;;;3.78;1.70;;;;;;;;;;10112447;29;20416;-87
2023/08/28 02:39:11;;;;;;;1.60;1.50;;;;;;;;;;10113164;29;20123;-86
2023/08/28 02:44:12;;;;;;;2.53;1.70;;;;;;;;;;10113396;29;20044;-88
2023/08/28 02:49:13;;;;;;;3.42;2.10;;;;;;;;;;10130848;29;20107;-88
2023/08/28 02:54:14;;;;;;;2.35;1.88;;;;;;;;;;10129893;29;20119;-85
2023/08/28 02:59:15;;;;;;;3.70;1.58;;;;;;;;;;10138937;29;20051;-85
2023/08/28 03:04:16;;;;;;;2.00;1.80;;;;;;;;;;10110618;29;20102;-88
2023/08/28 03:09:17;;;;;;;1.90;1.45;;;;;;;;;;10129210;29;20575;-86
2023/08/28 03:14:18;;;;;;;6.30;2.15;;;;;;;;;;10110956;29;20048;-85
2023/08/28 03:19:19;;;;;;;3.08;1.67;;;;;;;;;;10107903;29;20029;-85
2023/08/28 03:24:20;;;;;;;2.50;2.08;;;;;;;;;;10110184;29;20024;-85
2023/08/28 03:29:21;;;;;;;2.40;1.70;;;;;;;;;;10109440;29;20061;-86
2023/08/28 03:34:22;;;;;;;2.75;1.45;;;;;;;;;;10110940;29;20149;-87
2023/08/28 03:39:23;;;;;;;2.85;1.70;;;;;;;;;;10167042;23;20055;-87
2023/08/28 03:44:24;;;;;;;2.53;1.60;;;;;;;;;;10257540;28;20047;-85
2023/08/28 03:49:26;;;;;;;1.77;1.55;;;;;;;;;;10266268;28;20096;-86
2023/08/28 03:54:28;;;;;;;3.45;1.88;;;;;;;;;;10276438;28;20038;-87
2023/08/28 03:59:29;;;;;;;3.70;1.80;;;;;;;;;;10274698;28;20463;-85
2023/08/28 04:04:30;;;;;;;3.38;2.20;;;;;;;;;;10278074;28;20038;-86
2023/08/28 04:09:31;;;;;;;2.83;2.13;;;;;;;;;;10245851;28;20034;-86
2023/08/28 04:14:32;;;;;;;3.20;2.05;;;;;;;;;;10245419;29;20043;-86
2023/08/28 04:19:33;;;;;;;2.60;2.20;;;;;;;;;;10243728;29;20054;-86
2023/08/28 04:24:34;;;;;;;3.30;1.90;;;;;;;;;;10243923;29;20495;-85
2023/08/28 04:29:35;;;;;;;2.70;2.13;;;;;;;;;;10242384;29;20395;-86
2023/08/28 04:34:36;;;;;;;4.18;2.80;;;;;;;;;;10242256;28;20045;-87
2023/08/28 04:39:37;;;;;;;4.78;2.50;;;;;;;;;;10231177;29;20055;-87
2023/08/28 04:44:38;;;;;;;5.68;3.88;;;;;;;;;;10231874;29;20681;-88
2023/08/28 04:49:40;;;;;;;3.92;3.17;;;;;;;;;;10241416;29;20031;-88
2023/08/28 04:54:41;;;;;;;4.93;3.50;;;;;;;;;;10240113;29;20043;-87
2023/08/28 04:59:42;;;;;;;3.75;2.70;;;;;;;;;;10240627;28;20031;-86
2023/08/28 05:04:43;;;;;;;4.50;3.33;;;;;;;;;;10238330;28;20491;-86
2023/08/28 05:09:44;;;;;;;3.45;2.70;;;;;;;;;;10230572;29;20039;-85
2023/08/28 05:14:45;;;;;;;4.38;2.50;;;;;;;;;;10239413;29;20047;-87
2023/08/28 05:19:47;;;;;;;6.45;2.92;;;;;;;;;;10227301;28;20058;-86
2023/08/28 05:24:48;;;;;;;5.35;2.28;;;;;;;;;;10236685;29;20131;-85
2023/08/28 05:29:52;;;;;;;4.35;2.80;;;;;;;;;;10226190;29;20454;-85
2023/08/28 05:34:57;;;;;;;3.90;3.15;;;;;;;;;;10214769;29;20127;-88
2023/08/28 05:39:58;;;;;;;3.60;3.00;;;;;;;;;;10226536;28;20563;-86
2023/08/28 05:45:02;;;;;;;3.53;3.05;;;;;;;;;;10227313;28;20039;-85
2023/08/28 05:50:04;;;;;;;5.85;3.83;;;;;;;;;;10218742;29;20387;-89
2023/08/28 05:55:06;;;;;;;5.68;3.90;;;;;;;;;;10223310;29;20043;-85
2023/08/28 06:00:13;;;;;;;6.13;4.50;;;;;;;;;;10217469;29;20082;-88
2023/08/28 06:05:14;;;;;;;6.90;4.68;;;;;;;;;;10220954;29;20035;-84
2023/08/28 06:10:19;;;;;;;7.25;5.18;;;;;;;;;;10238683;28;20487;-86
2023/08/28 06:15:20;;;;;;;8.10;4.60;;;;;;;;;;10237910;29;20039;-87
2023/08/28 06:20:22;;;;;;;7.97;5.03;;;;;;;;;;10223504;29;20063;-88
2023/08/28 06:25:23;;;;;;;6.53;4.00;;;;;;;;;;10230179;28;20039;-88
2023/08/28 06:30:24;;;;;;;5.25;3.70;;;;;;;;;;10230303;29;20103;-88
2023/08/28 06:35:25;;;;;;;4.22;3.63;;;;;;;;;;10238576;29;20043;-86
2023/08/28 06:40:26;;;;;;;4.82;3.42;;;;;;;;;;10238053;29;20051;-87
2023/08/28 06:45:27;;;;;;;3.42;3.13;;;;;;;;;;10238198;29;20043;-88
2023/08/28 06:50:28;;;;;;;3.92;2.90;;;;;;;;;;10239564;29;20063;-89
2023/08/28 06:55:29;;;;;;;3.10;2.80;;;;;;;;;;10240632;28;20039;-88
2023/08/28 07:00:31;;;;;;;3.90;3.20;;;;;;;;;;10245298;29;20178;-89
2023/08/28 07:05:32;;;;;;;4.32;3.35;;;;;;;;;;10246497;29;20031;-89
2023/08/28 07:10:33;;;;;;;5.43;3.22;;;;;;;;;;10244798;28;20037;-84
2023/08/28 07:15:34;;;;;;;4.00;3.60;;;;;;;;;;10246469;29;20039;-86
2023/08/28 07:20:35;;;;;;;4.57;3.83;;;;;;;;;;10245209;29;20037;-86
2023/08/28 07:25:36;;;;;;;5.85;4.55;;;;;;;;;;10248844;28;20055;-86
2023/08/28 07:30:37;;;;;;;5.88;3.97;;;;;;;;;;10243460;28;20037;-88
2023/08/28 07:35:38;;;;;;;5.95;3.97;;;;;;;;;;10245311;29;20035;-89
2023/08/28 07:40:39;;;;;;;5.15;3.70;;;;;;;;;;10249084;28;20102;-86
2023/08/28 07:45:42;;;;;;;5.47;3.75;;;;;;;;;;10245073;29;20395;-86
2023/08/28 07:50:45;;;;;;;6.43;3.90;;;;;;;;;;10242915;28;20034;-86
2023/08/28 07:55:46;;;;;;;5.13;4.18;;;;;;;;;;10240987;29;20046;-84
2023/08/28 08:00:47;;;;;;;7.22;4.88;;;;;;;;;;10250216;28;20031;-88
2023/08/28 08:05:48;;;;;;;7.65;5.60;;;;;;;;;;10238630;28;20062;-85
2023/08/28 08:10:49;;;;;;;5.65;4.80;;;;;;;;;;10241754;29;20135;-87
2023/08/28 08:15:51;;;;;;;6.30;5.18;;;;;;;;;;10248459;28;20496;-86
2023/08/28 08:20:52;;;;;;;5.68;4.82;;;;;;;;;;10251130;28;20058;-86
2023/08/28 08:25:56;;;;;;;5.95;5.03;;;;;;;;;;10251733;28;20157;-87
2023/08/28 08:30:57;;;;;;;7.13;4.67;;;;;;;;;;10228038;29;20047;-85
2023/08/28 08:35:58;;;;;;;5.93;4.32;;;;;;;;;;10237038;28;20587;-87
2023/08/28 08:40:59;;;;;;;8.35;5.20;;;;;;;;;;10239521;28;20618;-87
2023/08/28 08:46:05;;;;;;;5.70;4.97;;;;;;;;;;10241427;29;20495;-91
2023/08/28 08:51:07;;;;;;;6.03;5.07;;;;;;;;;;10243106;29;20034;-88
2023/08/28 08:56:11;;;;;;;5.75;4.97;;;;;;;;;;10240948;29;20035;-86
2023/08/28 09:01:13;;;;;;;5.80;5.20;;;;;;;;;;10240814;29;20031;-87
2023/08/28 09:06:15;;;;;;;5.20;4.45;;;;;;;;;;10237279;28;20497;-86
2023/08/28 09:11:16;;;;;;;6.10;3.92;;;;;;;;;;10239078;29;20494;-86
2023/08/28 09:16:20;;;;;;;5.47;4.80;;;;;;;;;;10240008;29;20050;-86
2023/08/28 09:21:21;;;;;;;5.88;4.32;;;;;;;;;;10239545;28;20594;-86
2023/08/28 09:26:23;;;;;;;4.03;3.50;;;;;;;;;;10238242;29;20364;-86
2023/08/28 09:31:27;;;;;;;5.55;3.83;;;;;;;;;;10232561;29;20470;-86
2023/08/28 09:36:29;;;;;;;5.38;3.90;;;;;;;;;;10225074;29;20043;-87
2023/08/28 09:41:39;;;;;;;3.83;3.38;;;;;;;;;;10237766;29;20511;-89
2023/08/28 09:46:42;;;;;;;5.50;4.00;;;;;;;;;;10233498;29;20063;-87
2023/08/28 09:51:43;;;;;;;5.97;4.45;;;;;;;;;;10231221;29;20487;-87
2023/08/28 09:56:45;;;;;;;8.85;4.53;;;;;;;;;;10237610;28;20039;-88
2023/08/28 10:01:47;;;;;;;6.13;3.67;;;;;;;;;;10244276;28;20035;-86
2023/08/28 10:06:49;;;;;;;7.93;3.90;;;;;;;;;;10230379;28;20027;-85
2023/08/28 10:11:51;;;;;;;4.47;3.70;;;;;;;;;;10234722;29;20035;-87
2023/08/28 10:17:00;;;;;;;4.63;3.30;;;;;;;;;;10240223;29;20036;-87
2023/08/28 10:22:07;;;;;;;5.32;3.67;;;;;;;;;;10231900;29;20459;-88
2023/08/28 10:27:10;;;;;;;7.70;3.65;;;;;;;;;;10220987;29;20122;-87
2023/08/28 10:32:13;;;;;;;4.10;3.20;;;;;;;;;;10230932;28;20491;-88
2023/08/28 10:37:21;;;;;;;5.63;3.67;;;;;;;;;;10241443;29;20118;-88
2023/08/28 10:42:23;;;;;;;4.35;3.50;;;;;;;;;;10243044;29;20198;-88
2023/08/28 10:47:24;;;;;;;6.00;3.78;;;;;;;;;;10243424;29;20027;-87
2023/08/28 10:52:27;;;;;;;5.20;3.38;;;;;;;;;;10240274;29;20109;-88
2023/08/28 10:57:42;;;;;;;5.70;3.20;;;;;;;;;;10241240;29;20035;-88
2023/08/28 11:03:02;;;;;;;7.75;3.63;;;;;;;;;;10238086;28;20035;-88
2023/08/28 11:08:07;;;;;;;5.38;3.80;;;;;;;;;;10243515;28;20399;-89
2023/08/28 11:13:08;;;;;;;5.53;4.07;;;;;;;;;;10245289;28;20047;-88
2023/08/28 11:18:19;;;;;;;7.05;4.35;;;;;;;;;;10242971;29;20039;-87
2023/08/28 11:23:24;;;;;;;4.30;3.70;;;;;;;;;;10228529;29;20027;-88
2023/08/28 11:28:27;;;;;;;4.80;3.80;;;;;;;;;;10241310;29;20419;-87
2023/08/28 11:33:34;;;;;;;5.10;3.72;;;;;;;;;;10234668;29;20051;-86
2023/08/28 11:38:35;;;;;;;5.60;3.55;;;;;;;;;;10234571;29;20118;-87
2023/08/28 11:43:43;;;;;;;5.25;3.83;;;;;;;;;;10243409;28;20019;-87
2023/08/28 11:48:44;;;;;;;5.15;4.15;;;;;;;;;;10233285;29;20039;-88
2023/08/28 11:53:45;;;;;;;6.30;3.85;;;;;;;;;;10236348;29;20062;-88
2023/08/28 11:58:46;;;;;;;4.47;4.07;;;;;;;;;;10232254;29;20035;-87
2023/08/28 12:03:50;;;;;;;5.47;4.30;;;;;;;;;;10240654;29;20035;-88
2023/08/28 12:08:51;;;;;;;6.38;4.50;;;;;;;;;;10237366;28;20023;-84
2023/08/28 12:13:55;;;;;;;4.55;4.15;;;;;;;;;;10245191;23;20377;-86
2023/08/28 12:18:56;;;;;;;6.97;5.00;;;;;;;;;;10146194;29;20028;-87
2023/08/28 12:23:57;;;;;;;7.22;4.75;;;;;;;;;;10148837;29;20042;-85
2023/08/28 12:28:58;;;;;;;6.20;4.40;;;;;;;;;;10139770;29;20034;-87
2023/08/28 12:34:09;;;;;;;5.78;4.80;;;;;;;;;;10145474;29;20039;-87
2023/08/28 12:39:15;;;;;;;5.57;4.93;;;;;;;;;;10140857;29;20028;-88
2023/08/28 12:44:16;;;;;;;5.25;4.75;;;;;;;;;;10158569;29;20032;-88
2023/08/28 12:49:17;;;;;;;6.05;5.40;;;;;;;;;;10156097;29;20660;-87
2023/08/28 12:54:21;;;;;;;5.60;5.10;;;;;;;;;;10153281;29;20040;-86
2023/08/28 12:59:22;;;;;;;7.37;5.07;;;;;;;;;;10152912;29;20036;-86
2023/08/28 13:04:25;;;;;;;17.83;6.22;;;;;;;;;;10141173;29;21159;-87
2023/08/28 13:09:32;;;;;;;6.97;5.75;;;;;;;;;;10119104;29;20020;-89
2023/08/28 13:14:33;;;;;;;5.75;5.15;;;;;;;;;;10125431;29;20056;-88
2023/08/28 13:19:34;;;;;;;6.10;5.30;;;;;;;;;;10121543;29;20032;-87
2023/08/28 13:24:35;;;;;;;8.90;6.88;;;;;;;;;;10111214;29;20036;-88
2023/08/28 13:29:36;;;;;;;9.50;6.90;;;;;;;;;;10100997;29;20037;-88
2023/08/28 13:34:37;;;;;;;7.80;7.00;;;;;;;;;;10111899;29;20051;-90
2023/08/28 13:39:40;;;;;;;8.05;7.05;;;;;;;;;;10117587;29;20640;-89
2023/08/28 13:44:41;;;;;;;8.60;7.70;;;;;;;;;;10103169;29;20037;-89
2023/08/28 13:49:42;;;;;;;8.75;7.85;;;;;;;;;;10118631;29;20067;-88
2023/08/28 13:54:43;;;;;;;9.43;7.75;;;;;;;;;;10154707;29;20472;-88
2023/08/28 13:59:44;;;;;;;9.50;7.82;;;;;;;;;;10120921;29;20334;-88
2023/08/28 14:04:45;;;;;;;8.68;7.80;;;;;;;;;;10110450;29;20037;-89
2023/08/28 14:10:05;;;;;;;8.82;7.93;;;;;;;;;;10103053;29;20446;-89
2023/08/28 14:15:07;;;;;;;11.05;8.02;;;;;;;;;;10102374;29;20074;-88
2023/08/28 14:20:09;;;;;;;9.48;8.15;;;;;;;;;;10104794;29;20081;-90
2023/08/28 14:25:10;;;;;;;8.88;7.82;;;;;;;;;;10111478;29;20028;-87
2023/08/28 14:30:11;;;;;;;11.43;8.70;;;;;;;;;;10113578;29;20043;-89
2023/08/28 14:35:15;;;;;;;9.23;7.88;;;;;;;;;;10112552;29;20139;-89
2023/08/28 14:40:16;;;;;;;8.18;7.30;;;;;;;;;;10112397;29;20421;-89
2023/08/28 14:45:17;;;;;;;7.10;6.38;;;;;;;;;;10113534;29;20072;-89
2023/08/28 14:50:22;;;;;;;6.93;6.00;;;;;;;;;;10112667;29;20024;-90
2023/08/28 14:55:23;;;;;;;7.17;5.87;;;;;;;;;;10105416;29;20560;-90
2023/08/28 15:00:25;;;;;;;6.38;5.38;;;;;;;;;;10112020;29;20407;-87
2023/08/28 15:05:30;;;;;;;6.10;4.72;;;;;;;;;;10111622;29;20037;-88
2023/08/28 15:10:31;;;;;;;6.95;4.47;;;;;;;;;;10103522;29;20028;-86
2023/08/28 15:15:32;;;;;;;4.97;4.35;;;;;;;;;;10107258;29;20045;-86
2023/08/28 15:20:33;;;;;;;8.30;5.07;;;;;;;;;;10107726;29;20052;-88
2023/08/28 15:25:34;;;;;;;6.32;4.93;;;;;;;;;;10110634;29;20045;-85
2023/08/28 15:30:35;;;;;;;6.35;4.72;;;;;;;;;;10109390;29;20504;-87
2023/08/28 15:35:36;;;;;;;7.93;5.20;;;;;;;;;;10100851;29;20047;-86
2023/08/28 15:40:37;;;;;;;8.02;5.40;;;;;;;;;;10120844;29;20029;-87
2023/08/28 15:45:49;;;;;;;6.82;5.22;;;;;;;;;;10111845;29;20044;-87
2023/08/28 15:50:50;;;;;;;7.90;5.10;;;;;;;;;;10128295;29;20691;-86
2023/08/28 15:55:55;;;;;;;6.22;4.88;;;;;;;;;;10127291;29;20048;-87
2023/08/28 16:01:05;;;;;;;8.10;5.88;;;;;;;;;;10123289;29;20051;-88
2023/08/28 16:06:06;;;;;;;7.05;5.05;;;;;;;;;;10091920;29;20032;-87
2023/08/28 16:11:07;;;;;;;9.18;5.05;;;;;;;;;;10125712;29;20497;-88
2023/08/28 16:16:08;;;;;;;8.57;5.68;;;;;;;;;;10122993;29;20052;-86
2023/08/28 16:21:09;;;;;;;7.57;5.90;;;;;;;;;;10126822;29;20044;-87
2023/08/28 16:26:13;;;;;;;5.72;4.97;;;;;;;;;;10121157;29;20036;-87
2023/08/28 16:31:14;;;;;;;7.72;5.57;;;;;;;;;;10107966;29;20622;-86
2023/08/28 16:36:15;;;;;;;9.70;5.90;;;;;;;;;;10102508;29;20041;-86
2023/08/28 16:41:17;;;;;;;9.77;6.60;;;;;;;;;;10118900;29;20389;-87
2023/08/28 16:46:18;;;;;;;9.73;6.90;;;;;;;;;;10107461;29;20036;-88
2023/08/28 16:51:19;;;;;;;11.25;7.47;;;;;;;;;;10125005;29;20024;-89
2023/08/28 16:56:20;;;;;;;13.52;10.05;;;;;;;;;;10095719;29;20594;-88
2023/08/28 17:01:22;;;;;;;13.77;9.50;;;;;;;;;;10102295;29;20640;-89
2023/08/28 17:06:23;;;;;;;13.35;10.25;;;;;;;;;;10100701;29;20037;-88
2023/08/28 17:11:24;;;;;;;16.60;12.95;;;;;;;;;;10114913;29;20028;-87
2023/08/28 17:16:25;;;;;;;16.95;12.80;;;;;;;;;;10135179;29;20064;-86
2023/08/28 17:21:26;;;;;;;15.27;11.98;;;;;;;;;;10096423;29;20048;-90
2023/08/28 17:26:27;;;;;;;18.13;12.90;;;;;;;;;;10110311;29;20032;-88
2023/08/28 17:31:28;;;;;;;16.70;13.05;;;;;;;;;;10117807;29;20816;-88
2023/08/28 17:36:29;;;;;;;16.05;12.23;;;;;;;;;;10093756;29;20044;-86
2023/08/28 17:41:30;;;;;;;17.92;12.55;;;;;;;;;;10118945;29;20032;-88
2023/08/28 17:46:31;;;;;;;17.27;12.32;;;;;;;;;;10121971;29;20025;-88
2023/08/28 17:51:32;;;;;;;19.60;13.63;;;;;;;;;;10103726;29;20033;-89
2023/08/28 17:56:34;;;;;;;15.05;11.95;;;;;;;;;;10117099;29;20067;-88
2023/08/28 18:01:35;;;;;;;13.45;10.65;;;;;;;;;;10120455;29;20070;-89
2023/08/28 18:06:36;;;;;;;19.75;11.95;;;;;;;;;;10096226;29;20032;-90
2023/08/28 18:11:39;;;;;;;13.80;9.45;;;;;;;;;;10113355;29;20461;-91
2023/08/28 18:16:40;;;;;;;12.20;8.90;;;;;;;;;;10120093;29;20056;-89
2023/08/28 18:21:41;;;;;;;10.88;8.38;;;;;;;;;;10155100;29;20071;-90
2023/08/28 18:27:10;;;;;;;11.40;7.80;;;;;;;;;;10150451;29;20493;-89
2023/08/28 18:32:11;;;;;;;8.95;6.93;;;;;;;;;;10155775;29;20508;-89
2023/08/28 18:37:12;;;;;;;11.32;7.40;;;;;;;;;;10159262;29;20039;-89
2023/08/28 18:42:14;;;;;;;8.73;6.47;;;;;;;;;;10155687;29;20444;-87
2023/08/28 18:47:15;;;;;;;10.93;6.63;;;;;;;;;;10154982;29;20035;-88
2023/08/28 18:52:16;;;;;;;10.52;5.93;;;;;;;;;;10162201;29;20040;-89
2023/08/28 18:57:17;;;;;;;8.90;5.85;;;;;;;;;;10158426;29;20036;-90
2023/08/28 19:02:18;;;;;;;7.80;6.05;;;;;;;;;;10164642;29;20051;-87
2023/08/28 19:07:19;;;;;;;11.80;6.38;;;;;;;;;;10163831;29;20245;-88
2023/08/28 19:12:20;;;;;;;9.63;6.72;;;;;;;;;;10171154;29;20054;-89
2023/08/28 19:17:21;;;;;;;10.93;6.63;;;;;;;;;;10173101;29;20440;-87
2023/08/28 19:22:23;;;;;;;11.32;7.35;;;;;;;;;;10163428;29;20035;-87
2023/08/28 19:27:24;;;;;;;8.98;6.60;;;;;;;;;;10158724;29;20069;-87
2023/08/28 19:32:33;;;;;;;8.13;6.45;;;;;;;;;;10166774;29;20055;-88
2023/08/28 19:37:34;;;;;;;8.65;6.38;;;;;;;;;;10158492;29;20060;-89
2023/08/28 19:42:36;;;;;;;10.43;6.90;;;;;;;;;;10167685;23;20071;-88
2023/08/28 19:47:38;;;;;;;11.88;7.78;;;;;;;;;;10128636;29;20104;-90
2023/08/28 19:52:39;;;;;;;11.15;7.35;;;;;;;;;;10129926;29;20053;-87
2023/08/28 19:57:41;;;;;;;9.50;7.10;;;;;;;;;;10126937;29;20028;-87
2023/08/28 20:02:42;;;;;;;11.27;8.13;;;;;;;;;;10131227;29;20034;-86
2023/08/28 20:07:43;;;;;;;12.40;7.82;;;;;;;;;;10108461;29;20033;-88
2023/08/28 20:12:44;;;;;;;10.77;7.32;;;;;;;;;;10117107;29;20049;-89
2023/08/28 20:17:45;;;;;;;15.18;8.70;;;;;;;;;;10085458;29;20044;-87
2023/08/28 20:22:47;;;;;;;12.18;8.07;;;;;;;;;;10087157;29;20486;-89
2023/08/28 20:27:48;;;;;;;13.38;8.18;;;;;;;;;;10110919;29;20382;-89
2023/08/28 20:32:49;;;;;;;13.40;8.32;;;;;;;;;;10097133;29;20404;-87
2023/08/28 20:37:51;;;;;;;14.32;9.40;;;;;;;;;;10106234;29;20033;-88
2023/08/28 20:42:52;;;;;;;12.18;8.73;;;;;;;;;;10115810;29;20060;-88
2023/08/28 20:47:53;;;;;;;11.85;8.57;;;;;;;;;;10159358;29;20047;-88
2023/08/28 20:52:54;;;;;;;16.90;9.70;;;;;;;;;;10158616;29;20109;-90
2023/08/28 20:57:56;;;;;;;12.20;8.50;;;;;;;;;;10162560;29;20036;-88
2023/08/28 21:02:57;;;;;;;16.90;10.98;;;;;;;;;;10179226;23;20105;-88
2023/08/28 21:07:58;;;;;;;16.88;11.45;;;;;;;;;;10200453;29;20704;-88
2023/08/28 21:12:59;;;;;;;16.35;10.52;;;;;;;;;;10199302;29;20054;-88
2023/08/28 21:18:00;;;;;;;16.40;11.57;;;;;;;;;;10202445;29;20036;-89
2023/08/28 21:23:01;;;;;;;17.35;10.57;;;;;;;;;;10201056;29;20106;-89
2023/08/28 21:28:02;;;;;;;18.02;12.25;;;;;;;;;;10200274;29;20689;-88
2023/08/28 21:33:03;;;;;;;18.88;12.93;;;;;;;;;;10193301;29;20058;-87
2023/08/28 21:38:04;;;;;;;20.42;12.82;;;;;;;;;;10200186;29;20459;-87
2023/08/28 21:43:05;;;;;;;19.27;12.32;;;;;;;;;;10198731;29;20035;-87
2023/08/28 21:48:06;;;;;;;16.55;12.38;;;;;;;;;;10186811;29;20448;-88
2023/08/28 21:53:08;;;;;;;21.58;13.27;;;;;;;;;;10198862;29;20035;-89
2023/08/28 21:58:09;;;;;;;21.88;14.18;;;;;;;;;;10201083;29;20037;-89
2023/08/28 22:03:11;;;;;;;20.30;14.07;;;;;;;;;;10198167;29;20074;-90
2023/08/28 22:08:12;;;;;;;21.80;13.63;;;;;;;;;;10179650;29;20458;-89
2023/08/28 22:13:13;;;;;;;17.58;13.43;;;;;;;;;;10201018;29;20036;-87
2023/08/28 22:18:14;;;;;;;19.25;13.55;;;;;;;;;;10199067;29;20039;-89
2023/08/28 22:23:15;;;;;;;20.55;14.48;;;;;;;;;;10199582;29;20046;-88
2023/08/28 22:28:17;;;;;;;19.40;13.32;;;;;;;;;;10189489;29;20031;-89
2023/08/28 22:33:18;;;;;;;21.23;13.77;;;;;;;;;;10207927;29;20043;-90
2023/08/28 22:38:19;;;;;;;17.63;12.40;;;;;;;;;;10206454;29;20542;-89
2023/08/28 22:43:20;;;;;;;17.27;12.25;;;;;;;;;;10207523;29;20771;-89
2023/08/28 22:48:22;;;;;;;19.48;13.25;;;;;;;;;;10205339;29;20043;-87
2023/08/28 22:53:23;;;;;;;16.05;12.23;;;;;;;;;;10202554;29;20043;-90
2023/08/28 22:58:24;;;;;;;17.35;12.27;;;;;;;;;;10188489;29;20070;-88
2023/08/28 23:03:25;;;;;;;19.02;12.88;;;;;;;;;;10207557;29;20064;-89
2023/08/28 23:08:26;;;;;;;16.30;12.63;;;;;;;;;;10204739;29;20035;-89
2023/08/28 23:13:27;;;;;;;15.90;11.57;;;;;;;;;;10206404;29;20043;-89
2023/08/28 23:18:28;;;;;;;14.77;10.07;;;;;;;;;;10205570;29;20036;-90
2023/08/28 23:23:30;;;;;;;16.92;10.93;;;;;;;;;;10204889;29;20134;-89
2023/08/28 23:28:31;;;;;;;18.27;11.82;;;;;;;;;;10204878;29;20509;-89
2023/08/28 23:33:32;;;;;;;18.42;12.15;;;;;;;;;;10204559;29;20078;-89
2023/08/28 23:38:33;;;;;;;13.85;11.45;;;;;;;;;;10205099;29;20095;-88
2023/08/28 23:43:34;;;;;;;17.52;11.55;;;;;;;;;;10208030;29;20448;-88
2023/08/28 23:48:35;;;;;;;17.42;11.85;;;;;;;;;;10199388;29;20035;-90
2023/08/28 23:53:37;;;;;;;16.45;11.38;;;;;;;;;;10203874;29;20496;-88
2023/08/28 23:58:38;;;;;;;19.48;12.43;;;;;;;;;;10202888;29;20039;-89
